createdAt,value
2023-05-25T00:02:20.505Z,5.33
2023-05-25T00:04:48.746Z,6.03
2023-05-25T00:07:18.793Z,5.50
2023-05-25T00:09:46.691Z,6.50
2023-05-25T00:12:15.650Z,5.80
2023-05-25T00:14:43.317Z,6.53
2023-05-25T00:17:11.400Z,5.27
2023-05-25T00:19:42.516Z,5.90
2023-05-25T00:22:10.514Z,6.00
2023-05-25T00:24:40.477Z,6.97
2023-05-25T00:27:08.192Z,5.87
2023-05-25T00:29:36.885Z,5.87
2023-05-25T00:32:05.498Z,5.47
2023-05-25T00:34:33.229Z,5.33
2023-05-25T00:37:00.902Z,5.87
2023-05-25T00:39:28.622Z,6.23
2023-05-25T00:41:57.844Z,6.23
2023-05-25T00:44:25.617Z,5.33
2023-05-25T00:46:53.758Z,5.47
2023-05-25T00:49:23.162Z,6.33
2023-05-25T00:51:53.338Z,5.97
2023-05-25T00:54:21.928Z,5.50
2023-05-25T00:56:52.554Z,5.90
2023-05-25T00:59:35.984Z,5.30
2023-05-25T01:02:05.685Z,5.77
2023-05-25T01:04:35.880Z,5.53
2023-05-25T01:07:06.119Z,5.17
2023-05-25T01:09:35.121Z,5.70
2023-05-25T01:12:03.872Z,5.63
2023-05-25T01:14:34.179Z,5.37
2023-05-25T01:17:03.305Z,5.90
2023-05-25T01:19:34.131Z,5.73
2023-05-25T01:22:06.461Z,5.13
2023-05-25T01:24:40.783Z,6.80
2023-05-25T01:27:11.876Z,6.00
2023-05-25T01:29:41.734Z,5.60
2023-05-25T01:32:09.966Z,6.00
2023-05-25T01:34:38.676Z,6.33
2023-05-25T01:37:07.761Z,5.53
2023-05-25T01:39:35.414Z,5.57
2023-05-25T01:42:03.210Z,5.37
2023-05-25T01:44:31.012Z,6.30
2023-05-25T01:47:04.725Z,6.10
2023-05-25T01:49:38.720Z,6.10
2023-05-25T01:52:14.430Z,6.33
2023-05-25T01:54:46.600Z,5.50
2023-05-25T01:57:16.552Z,5.70
2023-05-25T01:59:47.126Z,5.87
2023-05-25T02:02:16.291Z,5.60
2023-05-25T02:04:44.481Z,6.40
2023-05-25T02:07:13.660Z,6.20
2023-05-25T02:09:41.388Z,5.53
2023-05-25T02:12:09.530Z,6.37
2023-05-25T02:14:37.254Z,6.77
2023-05-25T02:17:05.384Z,6.30
2023-05-25T02:19:33.043Z,6.30
2023-05-25T02:22:00.765Z,5.50
2023-05-25T02:24:29.835Z,5.67
2023-05-25T02:26:57.514Z,5.70
2023-05-25T02:29:25.616Z,5.90
2023-05-25T02:31:53.351Z,6.10
2023-05-25T02:34:21.921Z,6.00
2023-05-25T02:36:49.674Z,5.70
2023-05-25T02:39:17.674Z,5.87
2023-05-25T02:41:46.785Z,5.47
2023-05-25T02:44:14.464Z,6.37
2023-05-25T02:46:42.155Z,6.40
2023-05-25T02:49:09.895Z,6.30
2023-05-25T02:51:37.557Z,5.67
2023-05-25T02:54:05.488Z,6.60
2023-05-25T02:56:33.216Z,6.93
2023-05-25T02:59:02.255Z,7.20
2023-05-25T03:01:31.083Z,6.43
2023-05-25T03:03:59.193Z,6.70
2023-05-25T03:06:27.145Z,6.40
2023-05-25T03:08:54.863Z,5.73
2023-05-25T03:11:22.606Z,6.20
2023-05-25T03:13:51.304Z,5.70
2023-05-25T03:16:20.407Z,7.23
2023-05-25T03:18:48.114Z,5.87
2023-05-25T03:21:16.381Z,6.47
2023-05-25T03:23:44.145Z,6.77
2023-05-25T03:26:11.811Z,6.00
2023-05-25T03:28:39.492Z,6.73
2023-05-25T03:31:07.526Z,6.40
2023-05-25T03:33:36.627Z,5.40
2023-05-25T03:36:08.594Z,7.60
2023-05-25T03:38:36.359Z,5.87
2023-05-25T03:41:04.056Z,6.27
2023-05-25T03:43:31.867Z,6.43
2023-05-25T03:45:59.626Z,6.87
2023-05-25T03:48:27.569Z,6.00
2023-05-25T03:50:56.585Z,6.07
2023-05-25T03:53:24.318Z,6.03
2023-05-25T03:55:52.488Z,6.40
2023-05-25T03:58:20.302Z,6.23
2023-05-25T04:00:49.847Z,6.93
2023-05-25T04:03:17.721Z,6.33
2023-05-25T04:05:46.036Z,6.60
2023-05-25T04:08:18.209Z,6.03
2023-05-25T04:10:46.162Z,6.40
2023-05-25T04:13:14.165Z,6.67
2023-05-25T04:15:41.986Z,7.40
2023-05-25T04:18:09.973Z,6.73
2023-05-25T04:20:37.984Z,6.17
2023-05-25T04:23:06.144Z,6.30
2023-05-25T04:25:35.238Z,6.00
2023-05-25T04:28:02.980Z,6.33
2023-05-25T04:30:31.530Z,5.87
2023-05-25T04:33:02.605Z,6.63
2023-05-25T04:35:31.690Z,6.73
2023-05-25T04:38:00.669Z,6.27
2023-05-25T04:40:28.454Z,6.93
2023-05-25T04:42:57.553Z,5.67
2023-05-25T04:45:25.408Z,6.43
2023-05-25T04:47:53.808Z,7.17
2023-05-25T04:50:21.713Z,6.10
2023-05-25T04:52:49.392Z,6.60
2023-05-25T04:55:17.259Z,6.40
2023-05-25T04:57:44.957Z,6.73
2023-05-25T05:00:15.494Z,6.03
2023-05-25T05:02:44.174Z,6.67
2023-05-25T05:05:11.979Z,6.77
2023-05-25T05:07:39.728Z,7.23
2023-05-25T05:10:08.396Z,6.27
2023-05-25T05:12:36.327Z,7.67
2023-05-25T05:15:04.260Z,7.67
2023-05-25T05:17:34.047Z,7.03
2023-05-25T05:20:01.850Z,6.80
2023-05-25T05:22:29.635Z,7.53
2023-05-25T05:24:57.385Z,6.50
2023-05-25T05:27:26.273Z,7.80
2023-05-25T05:29:54.034Z,6.57
2023-05-25T05:32:21.780Z,7.20
2023-05-25T05:34:51.033Z,6.53
2023-05-25T05:37:18.921Z,6.13
2023-05-25T05:39:46.735Z,6.10
2023-05-25T05:42:14.544Z,7.63
2023-05-25T05:44:42.214Z,5.70
2023-05-25T05:47:09.924Z,5.77
2023-05-25T05:49:38.263Z,6.10
2023-05-25T05:52:10.521Z,6.30
2023-05-25T05:54:38.226Z,5.83
2023-05-25T05:57:06.506Z,6.33
2023-05-25T05:59:34.256Z,6.10
2023-05-25T06:02:02.078Z,5.60
2023-05-25T06:04:29.844Z,5.57
2023-05-25T06:06:57.605Z,6.23
2023-05-25T06:09:27.462Z,5.87
2023-05-25T06:11:55.311Z,6.20
2023-05-25T06:14:23.161Z,5.00
2023-05-25T06:16:51.224Z,6.00
2023-05-25T06:19:19.030Z,5.47
2023-05-25T06:21:46.779Z,6.07
2023-05-25T06:24:15.839Z,6.00
2023-05-25T06:26:44.920Z,5.83
2023-05-25T06:29:14.160Z,5.60
2023-05-25T06:31:43.269Z,6.33
2023-05-25T06:34:11.018Z,5.33
2023-05-25T06:36:39.463Z,5.57
2023-05-25T06:39:07.182Z,5.30
2023-05-25T06:41:34.943Z,5.40
2023-05-25T06:44:04.000Z,5.43
2023-05-25T06:46:32.875Z,5.73
2023-05-25T06:49:01.072Z,5.50
2023-05-25T06:51:28.959Z,5.57
2023-05-25T06:53:57.069Z,5.07
2023-05-25T06:56:25.299Z,5.40
2023-05-25T06:58:53.065Z,5.97
2023-05-25T07:01:22.801Z,5.50
2023-05-25T07:03:50.512Z,5.50
2023-05-25T07:06:18.320Z,5.57
2023-05-25T07:08:46.103Z,6.53
2023-05-25T07:11:14.346Z,5.70
2023-05-25T07:13:42.157Z,5.40
2023-05-25T07:16:09.876Z,4.90
2023-05-25T07:18:41.885Z,5.47
2023-05-25T07:21:10.598Z,5.63
2023-05-25T07:23:38.512Z,4.97
2023-05-25T07:26:06.451Z,5.57
2023-05-25T07:28:34.323Z,5.67
2023-05-25T07:31:02.520Z,5.47
2023-05-25T07:33:30.222Z,6.20
2023-05-25T07:35:59.437Z,6.03
2023-05-25T07:38:27.115Z,5.80
2023-05-25T07:40:55.054Z,5.90
2023-05-25T07:43:25.405Z,5.70
2023-05-25T07:45:53.167Z,6.13
2023-05-25T07:48:20.873Z,4.90
2023-05-25T07:50:48.590Z,5.67
2023-05-25T07:53:17.693Z,5.97
2023-05-25T07:55:45.642Z,6.23
2023-05-25T07:58:13.657Z,5.17
2023-05-25T08:00:41.398Z,5.97
2023-05-25T08:03:09.268Z,6.33
2023-05-25T08:05:37.123Z,5.37
2023-05-25T08:08:04.848Z,6.27
2023-05-25T08:10:33.903Z,5.17
2023-05-25T08:13:01.857Z,5.40
2023-05-25T08:15:29.678Z,5.43
2023-05-25T08:17:57.453Z,5.37
2023-05-25T08:20:26.137Z,5.80
2023-05-25T08:22:54.548Z,5.70
2023-05-25T08:25:22.426Z,5.37
2023-05-25T08:27:51.749Z,5.50
2023-05-25T08:30:19.417Z,5.90
2023-05-25T08:32:47.294Z,4.87
2023-05-25T08:35:15.316Z,6.60
2023-05-25T08:37:43.461Z,5.40
2023-05-25T08:40:15.813Z,5.27
2023-05-25T08:42:44.684Z,4.80
2023-05-25T08:45:26.325Z,5.50
2023-05-25T08:48:01.542Z,4.73
2023-05-25T08:50:31.176Z,5.23
2023-05-25T08:53:00.589Z,5.83
2023-05-25T08:55:28.535Z,5.27
2023-05-25T08:57:59.025Z,4.77
2023-05-25T09:00:31.101Z,5.50
2023-05-25T09:03:01.999Z,4.90
2023-05-25T09:05:29.959Z,4.70
2023-05-25T09:07:57.971Z,6.07
2023-05-25T09:10:27.818Z,5.23
2023-05-25T09:12:55.645Z,4.83
2023-05-25T09:15:23.291Z,5.03
2023-05-25T09:17:52.319Z,5.17
2023-05-25T09:20:20.707Z,5.37
2023-05-25T09:22:48.900Z,4.87
2023-05-25T09:25:20.200Z,5.30
2023-05-25T09:27:47.946Z,4.40
2023-05-25T09:30:15.782Z,5.53
2023-05-25T09:32:43.630Z,5.33
2023-05-25T09:35:14.099Z,4.73
2023-05-25T09:37:42.425Z,5.60
2023-05-25T09:40:11.406Z,4.73
2023-05-25T09:42:39.659Z,5.47
2023-05-25T09:45:08.385Z,5.13
2023-05-25T09:47:38.196Z,4.83
2023-05-25T09:50:06.931Z,5.00
2023-05-25T09:52:36.968Z,4.73
2023-05-25T09:55:05.252Z,5.50
2023-05-25T09:57:33.134Z,4.60
2023-05-25T10:00:01.112Z,5.50
2023-05-25T10:02:29.357Z,4.73
2023-05-25T10:04:57.653Z,5.30
2023-05-25T10:07:26.225Z,5.70
2023-05-25T10:09:55.975Z,5.37
2023-05-25T10:12:25.991Z,5.33
2023-05-25T10:14:54.874Z,5.13
2023-05-25T10:17:25.427Z,4.77
2023-05-25T10:19:56.414Z,4.63
2023-05-25T10:22:28.695Z,4.83
2023-05-25T10:25:01.042Z,5.03
2023-05-25T10:27:34.152Z,4.57
2023-05-25T10:30:03.055Z,5.37
2023-05-25T10:32:30.973Z,4.60
2023-05-25T10:34:59.444Z,4.40
2023-05-25T10:37:28.230Z,4.53
2023-05-25T10:39:58.160Z,4.77
2023-05-25T10:42:27.474Z,5.33
2023-05-25T10:44:56.518Z,5.90
2023-05-25T10:47:24.746Z,4.70
2023-05-25T10:49:54.482Z,5.03
2023-05-25T10:52:22.834Z,5.20
2023-05-25T10:54:50.657Z,5.40
2023-05-25T10:57:24.060Z,5.10
2023-05-25T10:59:55.298Z,5.00
2023-05-25T11:02:24.375Z,5.13
2023-05-25T11:04:52.331Z,5.13
2023-05-25T11:07:22.864Z,5.00
2023-05-25T11:09:59.150Z,5.03
2023-05-25T11:12:28.475Z,5.47
2023-05-25T11:15:15.425Z,4.90
2023-05-25T11:17:47.952Z,5.10
2023-05-25T11:20:27.788Z,5.40
2023-05-25T11:22:55.804Z,5.43
2023-05-25T11:25:39.109Z,5.03
2023-05-25T11:28:10.614Z,4.60
2023-05-25T11:30:40.972Z,4.63
2023-05-25T11:33:09.053Z,5.40
2023-05-25T11:35:38.246Z,4.40
2023-05-25T11:38:07.841Z,4.73
2023-05-25T11:40:38.284Z,4.97
2023-05-25T11:43:09.591Z,4.40
2023-05-25T11:45:38.460Z,5.03
2023-05-25T11:48:06.766Z,4.60
2023-05-25T11:50:34.511Z,4.37
2023-05-25T11:53:06.126Z,4.77
2023-05-25T11:55:33.872Z,4.53
2023-05-25T11:58:01.686Z,5.23
2023-05-25T12:00:31.604Z,5.23
2023-05-25T12:02:59.383Z,5.00
2023-05-25T12:05:27.292Z,4.90
2023-05-25T12:07:55.112Z,5.40
2023-05-25T12:10:22.798Z,5.77
2023-05-25T12:12:52.284Z,5.20
2023-05-25T12:15:22.962Z,5.60
2023-05-25T12:17:53.638Z,5.20
2023-05-25T12:20:21.810Z,5.13
2023-05-25T12:22:49.966Z,4.83
2023-05-25T12:25:21.028Z,5.57
2023-05-25T12:27:48.801Z,5.13
2023-05-25T12:30:16.697Z,4.80
2023-05-25T12:32:56.186Z,5.57
2023-05-25T12:35:23.917Z,4.40
2023-05-25T12:37:51.653Z,4.50
2023-05-25T12:40:20.939Z,4.40
2023-05-25T12:42:57.559Z,3.93
2023-05-25T12:45:25.601Z,4.53
2023-05-25T12:47:53.410Z,4.57
2023-05-25T12:50:22.879Z,4.77
2023-05-25T12:52:50.660Z,4.43
2023-05-25T12:55:29.034Z,5.03
2023-05-25T12:57:58.128Z,4.68
2023-05-25T13:00:27.300Z,4.47
2023-05-25T13:02:55.616Z,4.88
2023-05-25T13:05:26.360Z,4.03
2023-05-25T13:07:55.313Z,3.97
2023-05-25T13:10:23.588Z,4.28
2023-05-25T13:12:52.308Z,4.47
2023-05-25T13:15:21.989Z,4.40
2023-05-25T13:17:50.431Z,3.92
2023-05-25T13:20:19.768Z,4.72
2023-05-25T13:22:50.652Z,4.93
2023-05-25T13:25:18.637Z,5.13
2023-05-25T13:27:47.219Z,4.15
2023-05-25T13:30:15.676Z,4.72
2023-05-25T13:32:44.445Z,4.82
2023-05-25T13:35:19.124Z,5.15
2023-05-25T13:37:48.419Z,3.97
2023-05-25T13:40:16.127Z,3.95
2023-05-25T13:42:43.770Z,3.63
2023-05-25T13:45:11.952Z,4.32
2023-05-25T13:47:39.771Z,4.50
2023-05-25T13:50:08.234Z,4.70
2023-05-25T13:52:37.016Z,4.43
2023-05-25T13:55:07.437Z,4.60
2023-05-25T13:57:35.076Z,3.77
2023-05-25T14:00:02.690Z,4.90
2023-05-25T14:02:32.154Z,4.57
2023-05-25T14:04:59.866Z,4.30
2023-05-25T14:07:27.433Z,4.60
2023-05-25T14:09:55.082Z,4.20
2023-05-25T14:12:24.052Z,4.30
2023-05-25T14:14:51.782Z,3.93
2023-05-25T14:17:19.375Z,4.50
2023-05-25T14:19:46.944Z,5.50
2023-05-25T14:22:14.796Z,3.70
2023-05-25T14:24:42.519Z,4.03
2023-05-25T14:27:10.124Z,4.03
2023-05-25T14:29:39.073Z,4.00
2023-05-25T14:32:06.885Z,4.07
2023-05-25T14:34:34.806Z,4.50
2023-05-25T14:37:02.378Z,5.03
2023-05-25T14:39:30.133Z,4.40
2023-05-25T14:41:57.770Z,4.13
2023-05-25T14:44:25.434Z,3.57
2023-05-25T14:46:54.490Z,4.37
2023-05-25T14:49:24.765Z,4.90
2023-05-25T14:51:52.532Z,4.43
2023-05-25T14:54:20.168Z,3.63
2023-05-25T14:56:47.865Z,3.87
2023-05-25T14:59:15.490Z,4.67
2023-05-25T15:01:43.167Z,4.30
2023-05-25T15:04:13.173Z,4.23
2023-05-25T15:06:41.017Z,4.00
2023-05-25T15:09:09.597Z,4.60
2023-05-25T15:11:37.303Z,4.40
2023-05-25T15:14:05.004Z,4.23
2023-05-25T15:16:32.776Z,4.50
2023-05-25T15:19:00.585Z,3.47
2023-05-25T15:21:29.576Z,3.90
2023-05-25T15:23:57.234Z,3.87
2023-05-25T15:26:25.444Z,4.00
2023-05-25T15:28:53.239Z,4.10
2023-05-25T15:31:21.129Z,4.70
2023-05-25T15:33:57.853Z,4.03
2023-05-25T15:36:26.473Z,3.73
2023-05-25T15:38:55.591Z,4.10
2023-05-25T15:41:23.356Z,3.63
2023-05-25T15:43:52.609Z,3.70
2023-05-25T15:46:20.440Z,4.30
2023-05-25T15:48:48.079Z,3.67
2023-05-25T15:51:15.772Z,4.70
2023-05-25T15:53:43.420Z,3.70
2023-05-25T15:56:12.355Z,4.40
2023-05-25T15:58:40.148Z,3.80
2023-05-25T16:01:07.827Z,3.53
2023-05-25T16:03:35.616Z,4.37
2023-05-25T16:06:03.264Z,3.40
2023-05-25T16:08:31.071Z,3.67
2023-05-25T16:10:58.702Z,3.93
2023-05-25T16:13:27.760Z,4.67
2023-05-25T16:15:55.543Z,4.27
2023-05-25T16:18:23.259Z,4.90
2023-05-25T16:20:55.923Z,4.60
2023-05-25T16:23:23.824Z,3.90
2023-05-25T16:25:51.622Z,4.40
2023-05-25T16:28:19.435Z,4.20
2023-05-25T16:30:48.483Z,3.70
2023-05-25T16:33:16.227Z,4.03
2023-05-25T16:35:44.265Z,4.53
2023-05-25T16:38:12.148Z,3.63
2023-05-25T16:40:39.864Z,4.23
2023-05-25T16:43:07.728Z,4.57
2023-05-25T16:45:35.636Z,4.03
2023-05-25T16:48:04.762Z,4.37
2023-05-25T16:50:32.630Z,4.20
2023-05-25T16:53:00.368Z,3.43
2023-05-25T16:55:28.241Z,3.87
2023-05-25T16:57:55.962Z,4.07
2023-05-25T17:00:24.370Z,4.20
2023-05-25T17:02:52.191Z,5.00
2023-05-25T17:05:21.362Z,3.93
2023-05-25T17:07:49.196Z,3.90
2023-05-25T17:10:18.581Z,3.93
2023-05-25T17:12:46.339Z,3.83
2023-05-25T17:15:16.152Z,3.60
2023-05-25T17:17:44.160Z,3.80
2023-05-25T17:20:12.447Z,3.83
2023-05-25T17:22:41.550Z,3.80
2023-05-25T17:25:09.988Z,3.87
2023-05-25T17:27:37.693Z,4.13
2023-05-25T17:30:06.175Z,4.37
2023-05-25T17:32:34.069Z,3.97
2023-05-25T17:35:02.026Z,3.70
2023-05-25T17:37:29.748Z,4.40
2023-05-25T17:39:58.809Z,4.50
2023-05-25T17:42:26.748Z,4.23
2023-05-25T17:44:54.443Z,4.07
2023-05-25T17:47:22.538Z,3.90
2023-05-25T17:49:50.259Z,3.73
2023-05-25T17:52:18.050Z,4.73
2023-05-25T17:54:45.751Z,4.23
2023-05-25T17:57:14.952Z,3.87
2023-05-25T17:59:45.476Z,4.03
2023-05-25T18:02:13.648Z,4.30
2023-05-25T18:04:41.480Z,3.60
2023-05-25T18:07:09.222Z,3.83
2023-05-25T18:09:37.016Z,4.10
2023-05-25T18:12:04.893Z,3.93
2023-05-25T18:14:37.432Z,4.27
2023-05-25T18:17:05.452Z,3.87
2023-05-25T18:19:33.168Z,4.30
2023-05-25T18:22:00.852Z,4.47
2023-05-25T18:24:28.590Z,4.60
2023-05-25T18:26:56.356Z,3.73
2023-05-25T18:29:24.127Z,4.00
2023-05-25T18:31:53.239Z,4.27
2023-05-25T18:34:20.937Z,4.23
2023-05-25T18:36:48.665Z,4.10
2023-05-25T18:39:16.736Z,4.03
2023-05-25T18:41:44.579Z,4.00
2023-05-25T18:44:12.416Z,4.53
2023-05-25T18:46:42.470Z,4.40
2023-05-25T18:49:12.287Z,4.57
2023-05-25T18:51:40.230Z,4.93
2023-05-25T18:54:08.001Z,4.50
2023-05-25T18:56:35.760Z,4.13
2023-05-25T18:59:03.521Z,4.40
2023-05-25T19:01:31.356Z,4.20
2023-05-25T19:03:59.254Z,4.93
2023-05-25T19:06:28.339Z,3.80
2023-05-25T19:08:56.120Z,4.50
2023-05-25T19:11:23.831Z,4.40
2023-05-25T19:13:51.585Z,4.80
2023-05-25T19:16:19.369Z,4.07
2023-05-25T19:18:47.736Z,4.47
2023-05-25T19:21:15.640Z,3.90
2023-05-25T19:23:45.045Z,4.70
2023-05-25T19:26:12.761Z,4.67
2023-05-25T19:28:40.575Z,4.93
2023-05-25T19:31:08.474Z,4.43
2023-05-25T19:33:36.190Z,4.63
2023-05-25T19:36:04.057Z,4.37
2023-05-25T19:38:40.829Z,4.80
2023-05-25T19:41:11.255Z,4.33
2023-05-25T19:43:39.288Z,4.50
2023-05-25T19:46:07.347Z,4.47
2023-05-25T19:48:35.161Z,4.37
2023-05-25T19:51:02.934Z,4.13
2023-05-25T19:53:31.587Z,4.97
2023-05-25T19:55:59.305Z,4.60
2023-05-25T19:58:28.364Z,4.17
2023-05-25T20:00:56.138Z,4.63
2023-05-25T20:03:24.077Z,4.43
2023-05-25T20:05:51.931Z,5.03
2023-05-25T20:08:19.682Z,4.80
2023-05-25T20:10:47.467Z,4.37
2023-05-25T20:13:15.220Z,4.63
2023-05-25T20:15:44.517Z,4.77
2023-05-25T20:18:12.731Z,4.83
2023-05-25T20:20:40.565Z,4.77
2023-05-25T20:23:08.334Z,5.03
2023-05-25T20:25:36.285Z,5.07
2023-05-25T20:28:04.003Z,4.63
2023-05-25T20:30:31.714Z,5.23
2023-05-25T20:33:01.129Z,5.07
2023-05-25T20:35:30.976Z,5.30
2023-05-25T20:37:58.671Z,5.47
2023-05-25T20:40:27.054Z,5.10
2023-05-25T20:42:54.781Z,5.23
2023-05-25T20:45:22.483Z,4.70
2023-05-25T20:48:01.406Z,4.73
2023-05-25T20:50:29.227Z,4.70
2023-05-25T20:52:57.244Z,5.03
2023-05-25T20:55:24.998Z,5.47
2023-05-25T20:57:52.730Z,5.30
2023-05-25T21:00:22.070Z,8.57
2023-05-25T21:02:49.883Z,6.30
2023-05-25T21:05:19.067Z,5.53
2023-05-25T21:07:46.784Z,5.23
2023-05-25T21:10:14.628Z,5.20
2023-05-25T21:12:42.462Z,5.57
2023-05-25T21:15:10.690Z,5.40
2023-05-25T21:17:38.421Z,5.90
2023-05-25T21:20:07.271Z,5.13
2023-05-25T21:22:37.282Z,5.30
2023-05-25T21:25:05.508Z,5.43
2023-05-25T21:27:33.248Z,5.00
2023-05-25T21:30:01.026Z,5.90
2023-05-25T21:32:28.809Z,6.33
2023-05-25T21:34:56.544Z,5.83
2023-05-25T21:37:25.389Z,5.87
2023-05-25T21:39:54.565Z,5.37
2023-05-25T21:42:22.271Z,5.80
2023-05-25T21:44:49.960Z,5.80
2023-05-25T21:47:17.768Z,5.83
2023-05-25T21:49:45.636Z,5.60
2023-05-25T21:52:13.360Z,6.27
2023-05-25T21:54:41.087Z,6.13
2023-05-25T21:57:10.420Z,6.47
2023-05-25T21:59:38.116Z,6.33
2023-05-25T22:02:06.225Z,6.73
2023-05-25T22:04:34.122Z,6.03
2023-05-25T22:07:01.882Z,5.90
2023-05-25T22:09:30.150Z,6.23
2023-05-25T22:11:57.864Z,5.97
2023-05-25T22:14:26.877Z,6.47
2023-05-25T22:16:54.633Z,6.33
2023-05-25T22:19:22.427Z,6.30
2023-05-25T22:21:50.173Z,5.90
2023-05-25T22:24:17.980Z,6.27
2023-05-25T22:26:45.682Z,6.63
2023-05-25T22:29:13.391Z,6.53
2023-05-25T22:31:42.464Z,6.47
2023-05-25T22:34:10.253Z,6.20
2023-05-25T22:36:38.123Z,6.70
2023-05-25T22:39:05.825Z,6.83
2023-05-25T22:41:33.539Z,6.37
2023-05-25T22:44:01.323Z,6.53
2023-05-25T22:46:29.038Z,6.13
2023-05-25T22:48:58.045Z,6.87
2023-05-25T22:51:25.785Z,6.23
2023-05-25T22:53:53.481Z,6.07
2023-05-25T22:56:21.187Z,6.53
2023-05-25T22:58:48.890Z,6.63
2023-05-25T23:01:16.745Z,6.77
2023-05-25T23:03:44.611Z,6.20
2023-05-25T23:06:13.911Z,6.93
2023-05-25T23:08:41.649Z,6.87
2023-05-25T23:11:09.322Z,5.90
2023-05-25T23:13:37.035Z,7.47
2023-05-25T23:16:05.334Z,6.40
2023-05-25T23:18:33.137Z,6.87
2023-05-25T23:21:00.797Z,6.23
2023-05-25T23:23:29.864Z,7.00
2023-05-25T23:25:57.871Z,6.17
2023-05-25T23:28:25.652Z,6.50
2023-05-25T23:30:53.386Z,6.20
2023-05-25T23:33:21.127Z,5.87
2023-05-25T23:35:49.067Z,6.23
2023-05-25T23:38:16.785Z,6.30
2023-05-25T23:40:45.925Z,6.07
2023-05-25T23:43:13.987Z,6.97
2023-05-25T23:45:41.815Z,6.43
2023-05-25T23:48:09.832Z,6.23
2023-05-25T23:50:37.523Z,6.93
2023-05-25T23:53:05.280Z,6.50
2023-05-25T23:55:33.006Z,6.50
2023-05-25T23:58:02.027Z,6.57
